x

Capers Nearshore (cap 2) (41029) Weather Station

1:08am - Wed 26th Sep 2018 All times are EDT. -4 hours from GMT.

  • Wind
    2mph, 4mph gusts
  • Sea Temp 82°f
  • Air Temp 81°f
  • Sea Pressure 1018.3mb
  • Capers Nearshore (cap 2)
  • Capers Nearshore (cap 2)

More Historic Weather Station data

Upgrade to MSW Pro to gain access to the past 30 days of data for over 8000 Wavebouys and Weather Stations around the globe.

Join

Comparision Forecast

View Surf forecast
   
Wed 09/26 1:08am 2 4 mph 1018.3mb 82f 81f
12:08am 4 4 mph 1018.4mb 82f 81f
Tue 09/25 11:08pm 4 7 mph 1019.1mb 82f 81f
10:08pm 7 9 mph 1018.8mb 83f 82f
9:08pm 7 9 mph 1018.9mb 83f 82f
8:08pm 4 9 mph 1018.4mb 83f 82f
6:08pm 2 4 mph 1018.2mb 83f 82f
4:08pm 7 9 mph 1017.8mb 84f 83f
3:08pm 4 9 mph 1018.6mb 83f 83f
2:08pm 7 9 mph 1018.9mb 83f 82f
1:08pm 7 9 mph 1020.4mb 82f 82f
12:08pm 9 13 mph 1020.9mb 82f 79f
11:08am 13 16 mph 1020.8mb 82f 78f
10:08am 11 16 mph 1020.4mb 82f 77f
9:08am 13 18 mph 1020.1mb 82f 77f
8:08am 11 16 mph 1020.5mb 81f 77f
7:08am 13 16 mph 1019.2mb 81f 78f
6:08am 13 16 mph 1018.6mb 81f 78f
5:08am 13 16 mph 1018.2mb 82f 79f
4:08am 13 18 mph 1018.3mb 82f 78f
3:08am 13 18 mph 1019mb 82f 78f
2:08am 11 16 mph 1019.7mb 82f 82f
1:08am 9 11 mph 1019.9mb 82f 79f
12:08am 9 11 mph 1020.5mb 82f 79f
Mon 09/24 11:08pm 16 20 mph 1029.3mb 82f 77f
10:08pm 7 9 mph 1030.6mb 82f 78f
9:08pm 13 18 mph 1023.2mb 82f 75f
8:08pm 18 22 mph 1026.4mb 82f 78f
7:08pm 25 31 mph 1019.1mb 82f 78f
6:08pm 18 25 mph 1017.9mb 82f 81f
5:08pm 18 22 mph 1018.9mb 82f 81f
4:08pm 18 22 mph 1018.7mb 82f 81f
3:08pm 18 22 mph 1019mb 82f 80f
2:08pm 20 25 mph 1019.4mb 82f 81f
1:08pm 20 25 mph 1019.8mb 82f 80f
12:08pm 20 27 mph 1020.5mb 82f 80f
11:08am 20 25 mph 1020.1mb 82f 80f
10:08am 18 25 mph 1019.8mb 82f 80f
9:08am 16 20 mph 1019.4mb 82f 79f
8:08am 13 18 mph 1018.6mb 82f 79f
7:08am 11 16 mph 1018.3mb 82f 79f
6:08am 11 13 mph 1018mb 82f 78f
5:08am 11 13 mph 1017.8mb 82f 81f
4:08am 9 13 mph 1017.3mb 82f 81f
3:08am 9 13 mph 1017.3mb 82f 81f
2:08am 7 11 mph 1017.7mb 82f 81f
1:08am 9 11 mph 1017.8mb 82f 81f
12:08am 9 11 mph 1018.1mb 82f 81f
Sun 09/23 11:08pm 11 13 mph 1018.2mb 82f 81f
10:08pm 9 13 mph 1017.8mb 82f 81f
9:08pm 9 13 mph 1017.8mb 82f 82f
8:08pm 9 13 mph 1017.3mb 83f 82f
7:08pm 9 16 mph 1017mb 83f 82f
6:08pm 11 16 mph 1016.3mb 83f 82f
5:08pm 11 16 mph 1016mb 83f 82f
4:08pm 13 16 mph 1016.7mb 84f 82f
3:08pm 13 16 mph 1017.4mb 83f 81f
2:08pm 18 20 mph 1017.7mb 84f 80f
1:08pm 9 13 mph 1018mb 83f 81f
12:08pm 11 13 mph 1017.7mb 83f 79f
11:08am 7 11 mph 1018.7mb 82f 80f
10:08am 7 11 mph 1018.2mb 82f 80f
9:08am 11 13 mph 1017.9mb 82f 78f
8:08am 9 13 mph 1017.4mb 82f 79f
7:08am 7 9 mph 1016.4mb 82f 80f
6:08am 4 9 mph 1016.4mb 82f 80f
5:08am 7 9 mph 1016.4mb 82f 80f
4:08am 7 9 mph 1016.2mb 82f 80f
3:08am 7 9 mph 1016.5mb 82f 80f
2:08am 4 9 mph 1016.9mb 82f 80f
1:08am 7 9 mph 1017mb 82f 81f
12:08am 7 13 mph 1017.6mb 82f 81f
Sat 09/22 11:08pm 7 9 mph 1018mb 83f 81f
10:08pm 9 11 mph 1017.6mb 83f 81f
9:08pm 9 11 mph 1017.4mb 83f 81f
8:08pm 9 16 mph 1016.9mb 83f 81f
7:08pm 9 13 mph 1016.7mb 83f 81f
6:08pm 9 11 mph 1016.2mb 83f 81f
5:08pm 9 11 mph 1017mb 84f 82f
4:08pm 9 11 mph 1017.1mb 84f 81f
3:08pm 9 11 mph 1017.4mb 84f 81f
2:08pm 7 11 mph 1018.1mb 84f 81f
1:08pm 9 11 mph 1018.9mb 83f 81f
12:08pm 7 9 mph 1019.2mb 83f 81f
11:08am 9 11 mph 1019.5mb 83f 80f
10:08am 9 11 mph 1019.4mb 82f 80f
9:08am 7 9 mph 1018.8mb 82f 81f
8:08am 7 9 mph 1018.8mb 82f 81f
7:08am 7 9 mph 1018.5mb 82f 80f